AirNav   Air Wisconsin Up To $57,000 Bonus
 
 1169 users online  

ND47 Geske Airfield
Enderlin, North Dakota, USA

GOING TO ENDERLIN?


FAA INFORMATION EFFECTIVE 01 DECEMBER 2022

Location

FAA Identifier: ND47
Lat/Long: 46-38-26.9000N 097-33-04.0400W
46-38.448333N 097-33.067333W
46.6408056,-97.5511222
(estimated)
Elevation: 1103 ft. / 336 m (estimated)
Variation: 06E (2000)
From city: 3 miles ENE of ENDERLIN, ND
Time zone: UTC -6 (UTC -5 during Daylight Saving Time)
Zip code: 58027

Airport Operations

Airport use: Private use. Permission required prior to landing
Activation date: 11/2002
Control tower: no
ARTCC: MINNEAPOLIS CENTER
FSS: GRAND FORKS FLIGHT SERVICE STATION
Attendance: UNATNDD
Wind indicator: yes
Segmented circle: no

Nearby radio navigation aids

VOR radial/distance  VOR name  Freq  Var
FARr248/29.6FARGO VOR/DME116.2009E

Airport Services

Runway Information

Runway 18/36

Dimensions: 2450 x 75 ft. / 747 x 23 m
Surface: turf
RUNWAY 18  RUNWAY 36
Traffic pattern: leftleft
Obstructions: 20 ft. bldg50 ft. pline

Airport Ownership and Management from official FAA records

Ownership: Privately-owned
Owner: BOBBY GESKE
13923 53 ST SE
ENDERLIN, ND 58027-9505
Phone 701-437-3437
CELL:701-799-6082
Manager: BOBBY GESKE
13923 53 ST SE
ENDERLIN, ND 58027-9505
Phone 701-437-3437

Additional Remarks

FOR CD CTC MINNEAPOLIS ARTCC AT 651-463-5588.

Instrument Procedures

There are no published instrument procedures at ND47.

Some nearby airports with instrument procedures:

6L3 - Lisbon Municipal Airport (14 nm SW)
5N8 - Casselton Robert Miller Regional Airport (19 nm NE)
K74 - Robert Odegaard Field Airport (23 nm E)
KGWR - Gwinner Airport-Roger Melroe Field (26 nm S)
KBAC - Barnes County Municipal Airport (26 nm NW)
 
Loc | Ops | Rwys | IFR | FBO | Links
Com | Nav | Svcs | Stats | Notes

Bismarck Aero Center
AirBoss

 
Area around ND47 (Geske Airfield)
 
Road maps at: MapQuest Bing Google
 
Aerial photo
No photo
 
Sectional chart

 
Airport distance calculator
Flying to Geske Airfield? Find the distance to fly.

From to ND47

Sunrise and sunset
Times for 03-Dec-2022
 Local
(UTC-6)
 Zulu
(UTC)
Morning civil twilight07:2313:23
Sunrise07:5713:57
Sunset16:4322:43
Evening civil twilight17:1723:17

Current date and time
Zulu (UTC)  04-Dec-2022 02:07:29
Local (UTC-6)  03-Dec-2022 20:07:29
 
METAR
KGWR 
26nm S 
040155Z AUTO 25009KT 10SM CLR M13/M13 A3014 RMK A01
KBAC 
26nm NW 
040155Z AUTO 28005KT 10SM CLR M14/M16 A3013 RMK AO2
KFAR 
35nm NE 
040153Z 17008KT 10SM CLR M13/M17 A3016 RMK AO2 SLP239 T11281172
K2D5 
36nm SW 
040155Z AUTO 21009KT 10SM FEW034 FEW044 SCT055 M13/M15 A3015 RMK AO2
KJKJ 
38nm E 
040155Z AUTO 16008KT 10SM CLR M13/M17 A3016 RMK AO2 TSNO
KBWP 
46nm SE 
040155Z AUTO 11003KT 10SM CLR M15/M17 A3016 RMK AO2
KJMS 
49nm W 
040156Z AUTO 25005KT 10SM CLR M14/M17 A3010 RMK AO2 SLP235 T11391172
TAF
KFAR 
35nm NE 
031722Z 0318/0418 20011KT P6SM BKN080 FM032200 20008KT P6SM SCT100 FM040800 24009KT P6SM FEW250 FM041200 23010KT P6SM FEW250 WS020/29035KT
NOTAMs
Click for the latest NOTAMs
NOTAMs are issued by the DoD/FAA and will open in a separate window not controlled by AirNav.

 

 
 

Would you like to see your business listed on this page?

 If your business provides an interesting product or service to pilots, flight crews, aircraft, or users of the Geske Airfield, you should consider listing it here.  To start the listing process, click on the button below
 
Add a business
 

Other Pages about Geske Airfield

Update a link
 
Copyright © AirNav, LLC. All rights reserved. Privacy Policy  Contact